Time;durP1;ratioP1;P1;durP2;ratioP2;P2;SDS_P1;SDS_P2;PMS_P1;PMS_P2;Temp;Humidity;BMP_temperature;BMP_pressure;BME280_temperature;BME280_humidity;BME280_pressure;Samples;Min_cycle;Max_cycle;Signal;HPM_P1;HPM_P2
2023/01/31 00:00:25;;;;;;;17.67;2.05;;;;;;;;;;5035837;28;20041;-80
2023/01/31 00:02:51;;;;;;;17.98;1.73;;;;;;;;;;5034720;28;20050;-80
2023/01/31 00:05:18;;;;;;;14.57;1.98;;;;;;;;;;5035003;28;20048;-80
2023/01/31 00:07:46;;;;;;;15.40;2.15;;;;;;;;;;5033699;28;20057;-80
2023/01/31 00:10:13;;;;;;;20.55;2.15;;;;;;;;;;5034384;28;20401;-80
2023/01/31 00:12:39;;;;;;;18.30;1.80;;;;;;;;;;5034199;28;20068;-80
2023/01/31 00:15:06;;;;;;;21.58;1.80;;;;;;;;;;5016452;28;20052;-80
2023/01/31 00:17:32;;;;;;;11.30;1.50;;;;;;;;;;5013446;28;20053;-80
2023/01/31 00:19:59;;;;;;;25.45;2.20;;;;;;;;;;5012973;28;20060;-79
2023/01/31 00:22:25;;;;;;;18.02;1.70;;;;;;;;;;4996640;28;20058;-81
2023/01/31 00:24:52;;;;;;;22.95;2.00;;;;;;;;;;5014403;28;20065;-80
2023/01/31 00:27:18;;;;;;;17.20;2.20;;;;;;;;;;5013768;28;20162;-78
2023/01/31 00:29:44;;;;;;;15.07;1.90;;;;;;;;;;5015850;28;20046;-80
2023/01/31 00:32:11;;;;;;;16.15;1.92;;;;;;;;;;5016664;28;20052;-80
2023/01/31 00:34:37;;;;;;;13.45;1.65;;;;;;;;;;5019545;28;20057;-79
2023/01/31 00:37:04;;;;;;;15.80;1.77;;;;;;;;;;5014477;28;20054;-79
2023/01/31 00:39:30;;;;;;;12.18;1.88;;;;;;;;;;5013200;28;20042;-80
2023/01/31 00:41:56;;;;;;;12.90;1.70;;;;;;;;;;5012378;28;20046;-80
2023/01/31 00:44:23;;;;;;;18.73;2.08;;;;;;;;;;5014196;28;20568;-78
2023/01/31 00:46:49;;;;;;;15.57;1.95;;;;;;;;;;5012985;28;20050;-79
2023/01/31 00:49:16;;;;;;;23.48;2.05;;;;;;;;;;5013640;28;20049;-80
2023/01/31 00:51:43;;;;;;;15.32;1.73;;;;;;;;;;5018800;28;20061;-79
2023/01/31 00:54:10;;;;;;;14.13;1.55;;;;;;;;;;5013675;28;20053;-78
2023/01/31 00:56:37;;;;;;;13.68;1.55;;;;;;;;;;5013791;28;20145;-78
2023/01/31 00:59:07;;;;;;;15.30;1.73;;;;;;;;;;5011364;28;20064;-78
2023/01/31 01:01:34;;;;;;;9.65;1.48;;;;;;;;;;4996156;28;20133;-78
2023/01/31 01:04:01;;;;;;;14.73;1.92;;;;;;;;;;5011848;28;20050;-78
2023/01/31 01:06:28;;;;;;;14.65;1.65;;;;;;;;;;5013553;28;20045;-78
2023/01/31 01:08:55;;;;;;;15.07;2.15;;;;;;;;;;4994450;28;20053;-79
2023/01/31 01:11:23;;;;;;;18.17;2.00;;;;;;;;;;5013100;28;20092;-80
2023/01/31 01:13:50;;;;;;;19.00;1.70;;;;;;;;;;5012693;28;20049;-79
2023/01/31 01:16:20;;;;;;;17.60;2.00;;;;;;;;;;5013698;28;20054;-80
2023/01/31 01:18:48;;;;;;;20.95;2.45;;;;;;;;;;5012511;28;20049;-80
2023/01/31 01:21:21;;;;;;;16.50;1.95;;;;;;;;;;5013578;28;20049;-80
2023/01/31 01:23:48;;;;;;;20.63;1.88;;;;;;;;;;4994701;28;20052;-80
2023/01/31 01:26:15;;;;;;;14.75;1.60;;;;;;;;;;5014719;28;20054;-80
2023/01/31 01:28:41;;;;;;;12.70;1.65;;;;;;;;;;4996707;28;20538;-81
2023/01/31 01:31:08;;;;;;;18.13;1.92;;;;;;;;;;5014292;28;20045;-80
2023/01/31 01:33:35;;;;;;;13.02;1.85;;;;;;;;;;5012624;28;20049;-79
2023/01/31 01:36:03;;;;;;;22.75;2.47;;;;;;;;;;5013555;28;20054;-79
2023/01/31 01:38:29;;;;;;;14.43;1.90;;;;;;;;;;5013415;28;20046;-80
2023/01/31 01:40:56;;;;;;;12.85;1.70;;;;;;;;;;5015680;28;20053;-79
2023/01/31 01:43:37;;;;;;;13.23;1.58;;;;;;;;;;5014416;28;20050;-79
2023/01/31 01:46:04;;;;;;;17.65;2.05;;;;;;;;;;5015392;28;20050;-79
2023/01/31 01:48:31;;;;;;;12.27;1.58;;;;;;;;;;5012397;28;20049;-78
2023/01/31 01:50:58;;;;;;;15.65;1.80;;;;;;;;;;5004638;28;20056;-79
2023/01/31 01:53:26;;;;;;;12.07;1.42;;;;;;;;;;5014361;28;20068;-79
2023/01/31 01:56:00;;;;;;;10.90;1.52;;;;;;;;;;5010920;28;20648;-78
2023/01/31 01:58:46;;;;;;;14.48;1.33;;;;;;;;;;5009895;28;20050;-78
2023/01/31 02:01:15;;;;;;;8.32;1.35;;;;;;;;;;5011277;28;20054;-80
2023/01/31 02:03:43;;;;;;;10.25;1.55;;;;;;;;;;5009286;28;20076;-80
2023/01/31 02:06:10;;;;;;;15.95;1.88;;;;;;;;;;5010714;28;20081;-80
2023/01/31 02:08:38;;;;;;;11.13;1.10;;;;;;;;;;4992742;28;20149;-79
2023/01/31 02:11:04;;;;;;;7.95;1.48;;;;;;;;;;5011605;28;20056;-78
2023/01/31 02:13:32;;;;;;;12.27;1.75;;;;;;;;;;4992925;28;20054;-79
2023/01/31 02:15:59;;;;;;;14.75;1.65;;;;;;;;;;5012838;28;20116;-78
2023/01/31 02:18:26;;;;;;;10.18;1.73;;;;;;;;;;5013572;28;20052;-79
2023/01/31 02:20:53;;;;;;;20.73;1.88;;;;;;;;;;5014358;28;20139;-79
2023/01/31 02:23:19;;;;;;;12.23;1.58;;;;;;;;;;5015090;28;20126;-79
2023/01/31 02:25:51;;;;;;;7.32;1.20;;;;;;;;;;5014533;28;20049;-80
2023/01/31 02:28:27;;;;;;;16.75;1.90;;;;;;;;;;4996588;28;20046;-78
2023/01/31 02:31:12;;;;;;;10.10;1.58;;;;;;;;;;5015132;28;20188;-79
2023/01/31 02:33:50;;;;;;;10.97;1.40;;;;;;;;;;5001512;28;20509;-78
2023/01/31 02:36:16;;;;;;;17.13;1.88;;;;;;;;;;5000210;28;20501;-80
2023/01/31 02:39:05;;;;;;;12.25;1.38;;;;;;;;;;5013626;28;20045;-79
2023/01/31 02:41:40;;;;;;;25.10;2.28;;;;;;;;;;5015263;28;20054;-79
2023/01/31 02:47:10;;;;;;;11.32;1.67;;;;;;;;;;5015555;28;20046;-81
2023/01/31 02:49:45;;;;;;;17.67;1.52;;;;;;;;;;5019692;28;20096;-80
2023/01/31 02:52:15;;;;;;;16.85;1.63;;;;;;;;;;5026866;28;20050;-79
2023/01/31 02:57:51;;;;;;;18.45;2.13;;;;;;;;;;5035547;28;20049;-80
2023/01/31 03:00:18;;;;;;;20.42;1.35;;;;;;;;;;5035522;28;20046;-80
2023/01/31 03:02:45;;;;;;;15.63;1.60;;;;;;;;;;5035106;28;20525;-81
2023/01/31 03:05:15;;;;;;;10.63;2.22;;;;;;;;;;5017774;28;20045;-79
2023/01/31 03:07:45;;;;;;;20.45;1.70;;;;;;;;;;5033342;28;20076;-79
2023/01/31 03:10:11;;;;;;;15.52;1.85;;;;;;;;;;5035252;28;20045;-79
2023/01/31 03:12:38;;;;;;;11.93;1.90;;;;;;;;;;5034417;28;20057;-80
2023/01/31 03:15:24;;;;;;;13.20;1.70;;;;;;;;;;5017489;28;20054;-80
2023/01/31 03:17:57;;;;;;;22.63;1.65;;;;;;;;;;4979379;28;20061;-79
2023/01/31 03:20:23;;;;;;;19.38;1.92;;;;;;;;;;4994945;28;20054;-79
2023/01/31 03:22:52;;;;;;;19.98;1.60;;;;;;;;;;4995114;28;20042;-78
2023/01/31 03:25:20;;;;;;;10.07;1.65;;;;;;;;;;4995863;28;20047;-80
2023/01/31 03:27:51;;;;;;;14.30;1.50;;;;;;;;;;4994362;28;20046;-79
2023/01/31 03:30:21;;;;;;;18.20;1.58;;;;;;;;;;4995621;28;20046;-79
2023/01/31 03:33:02;;;;;;;13.57;1.58;;;;;;;;;;4994522;28;20054;-80
2023/01/31 03:35:30;;;;;;;13.57;1.27;;;;;;;;;;4995834;28;20082;-80
2023/01/31 03:38:05;;;;;;;16.13;1.58;;;;;;;;;;4993931;28;20058;-80
2023/01/31 03:40:40;;;;;;;11.02;1.30;;;;;;;;;;4996099;28;20066;-80
2023/01/31 03:43:30;;;;;;;18.65;1.98;;;;;;;;;;4995419;28;20046;-81
2023/01/31 03:46:10;;;;;;;15.50;1.48;;;;;;;;;;4967366;28;20050;-80
2023/01/31 03:48:40;;;;;;;16.20;2.03;;;;;;;;;;4997731;28;20046;-79
2023/01/31 03:51:08;;;;;;;16.50;1.70;;;;;;;;;;5024737;28;20045;-79
2023/01/31 03:53:40;;;;;;;14.77;1.88;;;;;;;;;;5034765;28;20057;-80
2023/01/31 03:56:16;;;;;;;18.70;1.73;;;;;;;;;;5035857;28;20113;-81
2023/01/31 03:58:46;;;;;;;13.13;1.42;;;;;;;;;;5035550;28;20478;-80
2023/01/31 04:01:13;;;;;;;13.85;1.73;;;;;;;;;;5037578;28;20422;-80
2023/01/31 04:03:42;;;;;;;18.10;2.05;;;;;;;;;;5036678;28;20130;-81
2023/01/31 04:06:09;;;;;;;19.40;2.05;;;;;;;;;;5037341;28;20050;-81
2023/01/31 04:08:36;;;;;;;11.55;1.48;;;;;;;;;;5038462;28;20033;-79
2023/01/31 04:11:04;;;;;;;15.20;1.60;;;;;;;;;;5036503;28;20045;-79
2023/01/31 04:13:30;;;;;;;14.00;1.73;;;;;;;;;;5034028;28;20056;-79
2023/01/31 04:15:57;;;;;;;19.45;1.58;;;;;;;;;;5022379;28;20057;-79
2023/01/31 04:18:23;;;;;;;13.88;1.48;;;;;;;;;;5015960;28;20062;-79
2023/01/31 04:20:50;;;;;;;20.58;1.88;;;;;;;;;;5014730;28;20144;-79
2023/01/31 04:23:17;;;;;;;12.05;1.55;;;;;;;;;;5013029;28;20128;-80
2023/01/31 04:25:44;;;;;;;16.50;2.33;;;;;;;;;;5014310;28;20113;-79
2023/01/31 04:28:10;;;;;;;10.68;1.48;;;;;;;;;;5014022;28;20399;-78
2023/01/31 04:30:37;;;;;;;17.80;1.73;;;;;;;;;;5013554;28;20057;-78
2023/01/31 04:33:03;;;;;;;16.10;1.85;;;;;;;;;;5012920;28;20052;-79
2023/01/31 04:35:30;;;;;;;10.68;2.00;;;;;;;;;;5014230;28;20049;-79
2023/01/31 04:37:57;;;;;;;15.25;2.03;;;;;;;;;;5011835;28;20137;-79
2023/01/31 04:40:23;;;;;;;14.50;1.92;;;;;;;;;;5012777;28;20049;-79
2023/01/31 04:42:50;;;;;;;14.30;1.63;;;;;;;;;;5012935;28;20426;-78
2023/01/31 04:45:16;;;;;;;19.13;1.92;;;;;;;;;;5013021;28;20046;-79
2023/01/31 04:47:43;;;;;;;16.00;2.00;;;;;;;;;;5013174;28;20132;-79
2023/01/31 04:50:10;;;;;;;15.30;1.83;;;;;;;;;;5012874;28;20052;-78
2023/01/31 04:52:36;;;;;;;15.20;1.52;;;;;;;;;;5018697;28;20045;-78
2023/01/31 04:55:03;;;;;;;19.38;1.65;;;;;;;;;;5013251;28;20053;-79
2023/01/31 04:57:29;;;;;;;8.90;1.67;;;;;;;;;;5013005;28;20058;-79
2023/01/31 04:59:56;;;;;;;11.52;1.50;;;;;;;;;;5014398;28;20254;-82
2023/01/31 05:02:22;;;;;;;6.18;1.30;;;;;;;;;;4996253;28;20073;-78
2023/01/31 05:04:49;;;;;;;12.63;1.73;;;;;;;;;;5014308;28;20042;-81
2023/01/31 05:07:15;;;;;;;14.70;1.63;;;;;;;;;;4995955;28;20050;-80
2023/01/31 05:09:42;;;;;;;13.02;2.03;;;;;;;;;;5014982;28;20064;-81
2023/01/31 05:12:09;;;;;;;17.27;1.98;;;;;;;;;;5015651;28;20358;-80
2023/01/31 05:14:35;;;;;;;19.60;1.70;;;;;;;;;;5015753;28;20049;-79
2023/01/31 05:17:02;;;;;;;13.10;2.47;;;;;;;;;;5017754;28;20494;-79
2023/01/31 05:19:28;;;;;;;8.07;1.50;;;;;;;;;;5017068;28;20056;-80
2023/01/31 05:21:57;;;;;;;11.70;1.52;;;;;;;;;;5001685;28;20050;-81
2023/01/31 05:24:25;;;;;;;15.57;1.92;;;;;;;;;;5019369;28;20084;-80
2023/01/31 05:26:55;;;;;;;17.52;2.35;;;;;;;;;;5022453;28;20056;-81
2023/01/31 05:29:22;;;;;;;18.88;2.05;;;;;;;;;;5021092;28;20060;-80
2023/01/31 05:31:55;;;;;;;9.10;1.33;;;;;;;;;;5021011;28;20053;-78
2023/01/31 05:34:24;;;;;;;11.20;2.20;;;;;;;;;;5014813;28;20450;-79
2023/01/31 05:36:51;;;;;;;13.25;1.73;;;;;;;;;;5015211;28;20118;-79
2023/01/31 05:39:17;;;;;;;14.50;1.80;;;;;;;;;;5008861;28;20052;-81
2023/01/31 05:41:43;;;;;;;13.77;1.92;;;;;;;;;;5011379;28;20141;-80
2023/01/31 05:44:10;;;;;;;16.25;1.80;;;;;;;;;;5011057;28;20446;-80
2023/01/31 05:46:37;;;;;;;12.85;1.98;;;;;;;;;;5011745;28;20527;-82
2023/01/31 05:49:03;;;;;;;19.52;1.33;;;;;;;;;;5010596;28;20294;-80
2023/01/31 05:51:30;;;;;;;7.13;1.67;;;;;;;;;;5011588;28;20052;-79
2023/01/31 05:53:56;;;;;;;14.38;1.80;;;;;;;;;;4993084;28;20533;-79
2023/01/31 05:56:23;;;;;;;16.13;2.20;;;;;;;;;;5017547;28;20054;-80
2023/01/31 05:58:49;;;;;;;19.45;1.95;;;;;;;;;;4995918;28;20076;-80
2023/01/31 06:01:17;;;;;;;11.57;1.30;;;;;;;;;;5014489;28;20046;-79
2023/01/31 06:03:43;;;;;;;14.52;1.95;;;;;;;;;;4995795;28;20050;-79
2023/01/31 06:06:09;;;;;;;13.52;1.55;;;;;;;;;;5015449;28;20113;-80
2023/01/31 06:08:36;;;;;;;27.35;2.08;;;;;;;;;;5013528;28;20064;-79
2023/01/31 06:11:06;;;;;;;13.88;1.42;;;;;;;;;;5013030;28;20058;-80
2023/01/31 06:13:32;;;;;;;13.85;1.52;;;;;;;;;;5012496;28;20050;-80
2023/01/31 06:15:59;;;;;;;14.75;1.80;;;;;;;;;;5012780;28;20060;-79
2023/01/31 06:18:26;;;;;;;19.95;1.88;;;;;;;;;;5010881;28;20050;-81
2023/01/31 06:20:52;;;;;;;13.93;1.60;;;;;;;;;;5014089;28;20619;-79
2023/01/31 06:23:18;;;;;;;11.38;1.80;;;;;;;;;;5014269;28;20046;-80
2023/01/31 06:25:54;;;;;;;12.98;1.48;;;;;;;;;;5012715;28;20080;-79
2023/01/31 06:28:21;;;;;;;13.35;1.35;;;;;;;;;;5011500;28;20045;-79
2023/01/31 06:30:47;;;;;;;9.80;1.70;;;;;;;;;;5013748;28;20077;-79
2023/01/31 06:33:14;;;;;;;11.23;3.30;;;;;;;;;;5013033;28;20081;-79
2023/01/31 06:35:40;;;;;;;14.18;2.58;;;;;;;;;;5012876;28;20137;-79
2023/01/31 06:38:07;;;;;;;16.27;2.35;;;;;;;;;;5010013;28;20053;-80
2023/01/31 06:40:35;;;;;;;10.48;2.10;;;;;;;;;;5011478;28;20046;-79
2023/01/31 06:43:01;;;;;;;23.17;2.47;;;;;;;;;;4992926;28;20068;-79
2023/01/31 06:45:28;;;;;;;19.02;2.78;;;;;;;;;;5010980;28;20046;-79
2023/01/31 06:47:54;;;;;;;15.75;2.65;;;;;;;;;;5009724;28;20049;-79
2023/01/31 06:50:21;;;;;;;15.88;2.20;;;;;;;;;;5018595;28;20434;-80
2023/01/31 06:52:48;;;;;;;17.30;2.22;;;;;;;;;;5023199;28;20054;-80
2023/01/31 06:55:14;;;;;;;17.98;1.98;;;;;;;;;;5029675;28;20164;-79
2023/01/31 06:57:47;;;;;;;15.57;2.33;;;;;;;;;;5030607;28;20049;-80
2023/01/31 07:00:14;;;;;;;12.90;1.92;;;;;;;;;;5034445;28;20051;-79
2023/01/31 07:02:41;;;;;;;19.48;2.88;;;;;;;;;;5033246;28;20115;-79
2023/01/31 07:05:07;;;;;;;9.20;1.70;;;;;;;;;;5034242;28;20708;-79
2023/01/31 07:07:34;;;;;;;15.73;2.25;;;;;;;;;;5035022;28;20072;-79
2023/01/31 07:10:00;;;;;;;10.90;1.70;;;;;;;;;;5017961;28;20049;-78
2023/01/31 07:12:26;;;;;;;14.25;1.60;;;;;;;;;;5035867;28;20075;-79
2023/01/31 07:14:53;;;;;;;10.20;1.58;;;;;;;;;;5019657;28;20056;-78
2023/01/31 07:17:20;;;;;;;14.63;2.60;;;;;;;;;;5013883;28;20092;-79
2023/01/31 07:19:46;;;;;;;16.10;2.05;;;;;;;;;;5015144;28;20046;-78
2023/01/31 07:22:12;;;;;;;14.27;1.38;;;;;;;;;;4997210;28;20609;-79
2023/01/31 07:24:39;;;;;;;12.55;1.50;;;;;;;;;;5014190;28;20531;-80
2023/01/31 07:27:05;;;;;;;9.38;1.65;;;;;;;;;;4996290;28;20049;-80
2023/01/31 07:29:32;;;;;;;11.35;1.65;;;;;;;;;;5014427;28;20077;-79
2023/01/31 07:31:58;;;;;;;11.93;1.40;;;;;;;;;;5014066;28;20052;-78
2023/01/31 07:34:25;;;;;;;10.82;1.45;;;;;;;;;;5013914;28;20052;-80
2023/01/31 07:36:51;;;;;;;11.75;1.70;;;;;;;;;;4996488;28;20050;-80
2023/01/31 07:39:18;;;;;;;13.57;2.28;;;;;;;;;;5012697;28;20493;-80
2023/01/31 07:41:44;;;;;;;8.27;1.35;;;;;;;;;;5015149;28;20397;-80
2023/01/31 07:44:11;;;;;;;12.90;1.60;;;;;;;;;;5014603;28;20057;-79
2023/01/31 07:46:39;;;;;;;17.02;1.40;;;;;;;;;;5014104;28;20065;-79
2023/01/31 07:49:05;;;;;;;11.70;1.30;;;;;;;;;;5004054;28;20406;-80
2023/01/31 07:51:32;;;;;;;13.15;1.42;;;;;;;;;;5022493;28;20045;-79
2023/01/31 07:53:58;;;;;;;11.73;1.40;;;;;;;;;;5029624;28;20064;-80
2023/01/31 07:56:24;;;;;;;14.02;1.38;;;;;;;;;;5031216;28;20053;-79
2023/01/31 07:58:51;;;;;;;14.20;1.67;;;;;;;;;;5012633;28;20479;-80
2023/01/31 08:04:05;;;;;;;16.00;1.90;;;;;;;;;;5030675;28;20089;-79
2023/01/31 08:06:47;;;;;;;11.57;1.52;;;;;;;;;;5032123;28;20045;-79
2023/01/31 08:09:13;;;;;;;10.65;1.80;;;;;;;;;;5031005;28;20045;-79
2023/01/31 08:11:40;;;;;;;12.88;1.67;;;;;;;;;;5032946;28;20045;-79
2023/01/31 08:14:07;;;;;;;17.08;1.58;;;;;;;;;;5019893;28;20059;-80
2023/01/31 08:16:35;;;;;;;6.57;1.35;;;;;;;;;;4993390;28;20050;-79
2023/01/31 08:19:02;;;;;;;11.65;1.38;;;;;;;;;;4990501;28;20054;-78
2023/01/31 08:21:28;;;;;;;13.85;1.48;;;;;;;;;;4993200;28;20084;-80
2023/01/31 08:23:55;;;;;;;5.15;1.27;;;;;;;;;;4990943;28;20050;-80
2023/01/31 08:26:24;;;;;;;9.68;1.58;;;;;;;;;;4992027;28;20474;-79
2023/01/31 08:28:52;;;;;;;11.38;1.52;;;;;;;;;;4991211;28;20103;-80
2023/01/31 08:31:21;;;;;;;11.68;1.50;;;;;;;;;;4993193;28;20085;-80
2023/01/31 08:33:50;;;;;;;9.88;1.45;;;;;;;;;;4993831;28;20594;-80
2023/01/31 08:36:18;;;;;;;10.38;1.23;;;;;;;;;;4994192;28;20257;-79
2023/01/31 08:38:44;;;;;;;16.35;1.90;;;;;;;;;;4992596;28;20065;-79
2023/01/31 08:41:12;;;;;;;8.32;1.60;;;;;;;;;;4994830;28;20069;-79
2023/01/31 08:43:38;;;;;;;12.15;1.50;;;;;;;;;;4993912;28;20538;-80
2023/01/31 08:46:22;;;;;;;10.82;1.70;;;;;;;;;;4995454;28;20057;-80
2023/01/31 08:48:48;;;;;;;7.07;1.55;;;;;;;;;;4998340;28;20432;-81
2023/01/31 08:51:17;;;;;;;8.13;1.17;;;;;;;;;;5031546;28;20050;-80
2023/01/31 08:53:44;;;;;;;15.25;1.55;;;;;;;;;;5029929;28;20541;-79
2023/01/31 08:56:12;;;;;;;7.80;1.17;;;;;;;;;;5029242;28;20055;-79
2023/01/31 08:58:40;;;;;;;12.18;1.25;;;;;;;;;;5028843;28;20061;-79
2023/01/31 09:01:08;;;;;;;9.23;1.27;;;;;;;;;;5030083;28;20149;-80
2023/01/31 09:03:34;;;;;;;9.32;1.17;;;;;;;;;;5012764;28;20053;-78
2023/01/31 09:06:02;;;;;;;10.50;1.20;;;;;;;;;;5030523;28;20069;-80
2023/01/31 09:08:28;;;;;;;10.02;1.40;;;;;;;;;;5034463;28;20489;-78
2023/01/31 09:10:56;;;;;;;10.50;1.45;;;;;;;;;;5013331;28;20057;-80
2023/01/31 09:13:23;;;;;;;10.32;1.30;;;;;;;;;;5027053;28;20520;-79
2023/01/31 09:15:58;;;;;;;10.35;1.48;;;;;;;;;;5010509;28;20053;-79
2023/01/31 09:18:26;;;;;;;8.27;1.35;;;;;;;;;;5009748;28;20104;-78
2023/01/31 09:20:52;;;;;;;9.75;1.30;;;;;;;;;;5010057;28;20056;-79
2023/01/31 09:23:19;;;;;;;8.00;1.30;;;;;;;;;;5009924;28;20065;-79
2023/01/31 09:25:52;;;;;;;8.65;1.33;;;;;;;;;;5010314;28;20173;-79
2023/01/31 09:28:19;;;;;;;8.23;1.60;;;;;;;;;;5009144;28;20049;-79
2023/01/31 09:30:46;;;;;;;16.63;1.50;;;;;;;;;;5009365;28;20058;-78
2023/01/31 09:33:12;;;;;;;8.85;1.52;;;;;;;;;;5010095;28;20050;-78
2023/01/31 09:35:39;;;;;;;11.02;1.20;;;;;;;;;;5010708;28;20593;-78
2023/01/31 09:38:05;;;;;;;9.48;1.35;;;;;;;;;;4992472;28;20061;-80
2023/01/31 09:40:33;;;;;;;9.40;1.33;;;;;;;;;;5019096;28;20045;-78
2023/01/31 09:43:01;;;;;;;10.65;1.38;;;;;;;;;;5010187;28;20042;-81
2023/01/31 09:45:32;;;;;;;10.85;1.52;;;;;;;;;;5011278;28;20521;-79
2023/01/31 09:48:00;;;;;;;8.88;1.40;;;;;;;;;;5011553;28;20129;-80
2023/01/31 09:50:35;;;;;;;9.93;1.30;;;;;;;;;;5015578;28;20128;-79
2023/01/31 09:53:01;;;;;;;;;;;;;;;;;;4995823;28;20052;-80
2023/01/31 09:55:28;;;;;;;7.22;1.65;;;;;;;;;;5011708;28;20307;-80
2023/01/31 09:57:54;;;;;;;9.05;0.98;;;;;;;;;;5011262;28;20178;-79
2023/01/31 10:00:24;;;;;;;11.93;1.58;;;;;;;;;;5011422;28;20491;-80
2023/01/31 10:02:51;;;;;;;11.68;1.67;;;;;;;;;;5010868;28;20108;-80
2023/01/31 10:05:28;;;;;;;10.27;1.67;;;;;;;;;;5015755;28;20046;-80
2023/01/31 10:08:13;;;;;;;9.73;1.38;;;;;;;;;;5004143;28;20149;-80
2023/01/31 10:10:49;;;;;;;7.60;1.15;;;;;;;;;;5010332;28;20050;-80
2023/01/31 10:13:19;;;;;;;6.50;1.40;;;;;;;;;;5010562;28;20042;-80
2023/01/31 10:16:12;;;;;;;8.35;2.33;;;;;;;;;;5007891;28;20060;-80
2023/01/31 10:18:44;;;;;;;8.85;1.42;;;;;;;;;;5004304;28;20054;-79
2023/01/31 10:21:17;;;;;;;16.63;1.75;;;;;;;;;;5010350;28;20042;-80
2023/01/31 10:23:47;;;;;;;11.50;1.52;;;;;;;;;;5004342;28;20053;-79
2023/01/31 10:26:19;;;;;;;8.05;1.42;;;;;;;;;;4993720;28;20042;-80
2023/01/31 10:29:01;;;;;;;11.77;1.80;;;;;;;;;;5010289;28;20042;-80
2023/01/31 10:31:30;;;;;;;9.38;1.38;;;;;;;;;;5008614;28;20064;-80
2023/01/31 10:34:06;;;;;;;8.07;1.55;;;;;;;;;;5009081;28;20436;-79
2023/01/31 10:36:39;;;;;;;9.65;1.60;;;;;;;;;;5016833;28;20132;-81
2023/01/31 10:39:05;;;;;;;13.13;1.55;;;;;;;;;;5003637;28;20416;-80
2023/01/31 10:41:42;;;;;;;11.55;1.90;;;;;;;;;;5013902;28;20101;-81
2023/01/31 10:44:17;;;;;;;11.07;1.77;;;;;;;;;;5005560;28;20047;-80
2023/01/31 10:46:43;;;;;;;9.37;1.50;;;;;;;;;;4993771;28;20137;-80
2023/01/31 10:49:09;;;;;;;13.13;1.73;;;;;;;;;;5013027;28;20156;-80
2023/01/31 10:51:36;;;;;;;17.85;1.98;;;;;;;;;;5010872;28;20041;-78
2023/01/31 10:54:08;;;;;;;8.05;1.40;;;;;;;;;;5018300;28;20092;-81
2023/01/31 10:56:36;;;;;;;10.90;1.70;;;;;;;;;;5008179;28;20218;-80
2023/01/31 10:59:10;;;;;;;10.55;1.88;;;;;;;;;;5027182;28;20113;-80
2023/01/31 11:01:37;;;;;;;12.10;1.83;;;;;;;;;;5025504;28;20494;-80
2023/01/31 11:04:20;;;;;;;7.57;1.50;;;;;;;;;;5005830;28;20050;-79
2023/01/31 11:06:52;;;;;;;14.88;1.90;;;;;;;;;;5005353;28;20495;-80
2023/01/31 11:09:20;;;;;;;11.32;2.08;;;;;;;;;;5005491;28;20042;-79
2023/01/31 11:11:55;;;;;;;15.55;2.17;;;;;;;;;;5006856;28;20396;-80
2023/01/31 11:14:22;;;;;;;8.95;1.80;;;;;;;;;;5013856;28;20049;-79
2023/01/31 11:16:49;;;;;;;9.82;2.38;;;;;;;;;;5012656;28;20050;-79
2023/01/31 11:19:26;;;;;;;14.48;1.70;;;;;;;;;;5011502;28;20064;-77
2023/01/31 11:21:53;;;;;;;10.82;1.90;;;;;;;;;;4993073;28;20081;-77
2023/01/31 11:24:24;;;;;;;14.25;2.20;;;;;;;;;;5010883;28;20050;-78
2023/01/31 11:26:50;;;;;;;11.80;1.80;;;;;;;;;;5010678;28;20056;-79
2023/01/31 11:29:19;;;;;;;11.57;2.30;;;;;;;;;;5026749;28;20101;-78
2023/01/31 11:31:46;;;;;;;9.05;1.95;;;;;;;;;;5012482;28;20072;-78
2023/01/31 11:34:23;;;;;;;13.85;2.40;;;;;;;;;;5012382;28;20045;-78
2023/01/31 11:36:49;;;;;;;7.93;1.92;;;;;;;;;;5012599;28;20209;-78
2023/01/31 11:39:22;;;;;;;15.35;2.15;;;;;;;;;;5012140;28;20441;-79
2023/01/31 11:41:48;;;;;;;15.13;2.33;;;;;;;;;;5011481;28;20046;-79
2023/01/31 11:44:18;;;;;;;11.52;2.03;;;;;;;;;;5010621;28;20050;-79
2023/01/31 11:46:53;;;;;;;18.33;2.72;;;;;;;;;;5014572;28;20125;-78
2023/01/31 11:49:28;;;;;;;11.30;2.08;;;;;;;;;;5009089;28;20048;-78
2023/01/31 11:51:55;;;;;;;13.82;2.22;;;;;;;;;;5021604;28;20045;-79
2023/01/31 11:54:25;;;;;;;15.13;2.38;;;;;;;;;;5033397;28;20045;-81
2023/01/31 11:56:52;;;;;;;12.85;2.45;;;;;;;;;;5030238;28;20513;-78
2023/01/31 11:59:24;;;;;;;8.35;2.00;;;;;;;;;;5015731;28;20056;-78
2023/01/31 12:01:52;;;;;;;15.57;2.47;;;;;;;;;;5011317;28;20127;-77
2023/01/31 12:04:30;;;;;;;16.75;3.25;;;;;;;;;;5009883;28;20050;-78
2023/01/31 12:07:00;;;;;;;8.75;2.40;;;;;;;;;;5011943;28;20050;-78
2023/01/31 12:09:28;;;;;;;13.68;2.45;;;;;;;;;;5011972;28;20093;-78
2023/01/31 12:11:55;;;;;;;15.98;2.80;;;;;;;;;;5024478;28;20057;-79
2023/01/31 12:14:23;;;;;;;15.50;2.65;;;;;;;;;;5000204;28;20058;-78
2023/01/31 12:16:53;;;;;;;14.02;2.60;;;;;;;;;;4991281;28;20050;-79
2023/01/31 12:19:25;;;;;;;7.47;2.45;;;;;;;;;;4990894;28;20110;-80
2023/01/31 12:21:57;;;;;;;18.58;2.95;;;;;;;;;;4993046;28;20097;-79
2023/01/31 12:24:24;;;;;;;16.23;2.72;;;;;;;;;;4991315;28;20073;-80
2023/01/31 12:26:53;;;;;;;15.00;2.60;;;;;;;;;;4991848;28;20048;-80
2023/01/31 12:29:46;;;;;;;14.88;2.65;;;;;;;;;;4992392;28;20077;-79
2023/01/31 12:32:22;;;;;;;25.85;3.17;;;;;;;;;;4992822;28;20396;-80
2023/01/31 12:34:48;;;;;;;16.20;3.22;;;;;;;;;;4975565;28;20113;-79
2023/01/31 12:37:36;;;;;;;13.95;3.80;;;;;;;;;;4976411;28;20129;-80
2023/01/31 12:40:03;;;;;;;17.17;3.80;;;;;;;;;;4994985;28;20491;-80
2023/01/31 12:42:51;;;;;;;16.52;4.00;;;;;;;;;;4980817;28;20073;-80
2023/01/31 12:45:36;;;;;;;20.08;4.05;;;;;;;;;;4995580;28;20066;-78
2023/01/31 12:48:21;;;;;;;25.08;4.03;;;;;;;;;;4974558;28;20047;-79
2023/01/31 12:50:48;;;;;;;21.52;3.38;;;;;;;;;;5021114;28;20105;-81
2023/01/31 12:53:15;;;;;;;20.15;4.10;;;;;;;;;;5018301;28;20099;-81
2023/01/31 12:55:47;;;;;;;24.85;4.10;;;;;;;;;;5037133;28;20148;-80
2023/01/31 12:58:32;;;;;;;19.23;4.20;;;;;;;;;;5035663;28;20056;-81
2023/01/31 13:01:16;;;;;;;14.00;3.28;;;;;;;;;;5034455;28;20053;-79
2023/01/31 13:03:55;;;;;;;16.27;3.95;;;;;;;;;;5033346;28;20049;-80
2023/01/31 13:06:33;;;;;;;29.50;5.18;;;;;;;;;;5032287;28;20490;-80
2023/01/31 13:09:08;;;;;;;19.73;4.43;;;;;;;;;;5031971;28;20522;-80
2023/01/31 13:11:38;;;;;;;17.98;4.13;;;;;;;;;;5033701;28;20050;-80
2023/01/31 13:14:07;;;;;;;22.38;4.53;;;;;;;;;;5023409;28;20050;-81
2023/01/31 13:16:39;;;;;;;24.33;4.97;;;;;;;;;;5012630;28;20057;-78
2023/01/31 13:19:10;;;;;;;22.10;4.45;;;;;;;;;;5012444;28;20058;-78
2023/01/31 13:21:40;;;;;;;24.90;5.28;;;;;;;;;;5013515;28;20050;-78
2023/01/31 13:24:17;;;;;;;22.38;5.60;;;;;;;;;;5012245;28;20046;-79
2023/01/31 13:26:46;;;;;;;23.17;4.72;;;;;;;;;;5014162;28;20053;-80
2023/01/31 13:29:17;;;;;;;29.35;5.05;;;;;;;;;;4996166;28;20046;-78
2023/01/31 13:31:43;;;;;;;21.95;4.53;;;;;;;;;;5014690;28;20046;-79
2023/01/31 13:34:13;;;;;;;25.10;5.18;;;;;;;;;;5014748;28;20076;-78
2023/01/31 13:36:58;;;;;;;24.58;4.93;;;;;;;;;;5023807;28;20114;-79
2023/01/31 13:39:39;;;;;;;20.15;4.55;;;;;;;;;;5017707;28;20184;-78
2023/01/31 13:42:05;;;;;;;20.98;4.95;;;;;;;;;;5011750;28;20049;-80
2023/01/31 13:44:32;;;;;;;25.45;4.70;;;;;;;;;;5011857;28;20073;-77
2023/01/31 13:47:12;;;;;;;17.02;4.05;;;;;;;;;;5027316;28;20065;-78
2023/01/31 13:49:45;;;;;;;19.05;4.07;;;;;;;;;;5005447;28;20041;-77
2023/01/31 13:52:15;;;;;;;28.63;4.20;;;;;;;;;;4985735;28;20133;-78
2023/01/31 13:54:47;;;;;;;19.63;3.80;;;;;;;;;;4999354;28;20053;-79
2023/01/31 13:57:24;;;;;;;14.90;3.17;;;;;;;;;;5009188;28;20133;-79
2023/01/31 13:59:58;;;;;;;17.83;3.97;;;;;;;;;;5012334;28;20064;-79
2023/01/31 14:02:25;;;;;;;15.10;2.53;;;;;;;;;;5011155;28;20050;-79
2023/01/31 14:04:51;;;;;;;13.70;3.30;;;;;;;;;;5011189;28;20066;-79
2023/01/31 14:07:19;;;;;;;12.85;2.88;;;;;;;;;;5010317;28;20596;-76
2023/01/31 14:09:45;;;;;;;12.15;2.83;;;;;;;;;;5011447;28;20136;-79
2023/01/31 14:12:15;;;;;;;11.57;2.97;;;;;;;;;;5012346;28;20172;-80
2023/01/31 14:14:45;;;;;;;14.30;3.30;;;;;;;;;;5002266;28;20054;-79
2023/01/31 14:17:11;;;;;;;15.20;3.80;;;;;;;;;;4977155;28;20054;-79
2023/01/31 14:19:48;;;;;;;11.32;3.25;;;;;;;;;;4995276;28;20137;-79
2023/01/31 14:22:22;;;;;;;10.68;3.33;;;;;;;;;;4995625;28;20150;-78
2023/01/31 14:24:48;;;;;;;15.23;3.13;;;;;;;;;;4997130;28;20318;-78
2023/01/31 14:27:20;;;;;;;15.25;3.50;;;;;;;;;;5015043;28;20139;-79
2023/01/31 14:29:47;;;;;;;11.65;3.30;;;;;;;;;;5016973;28;20518;-79
2023/01/31 14:32:34;;;;;;;18.15;3.55;;;;;;;;;;5014758;28;20062;-79
2023/01/31 14:35:22;;;;;;;13.73;3.55;;;;;;;;;;4995541;28;20145;-79
2023/01/31 14:38:07;;;;;;;12.45;3.55;;;;;;;;;;5009521;28;20076;-79
2023/01/31 14:40:33;;;;;;;10.75;3.10;;;;;;;;;;5016581;28;20133;-79
2023/01/31 14:43:03;;;;;;;12.13;3.47;;;;;;;;;;5017110;28;20050;-80
2023/01/31 14:45:48;;;;;;;9.90;3.30;;;;;;;;;;5016270;28;20053;-79
2023/01/31 14:48:14;;;;;;;10.10;3.10;;;;;;;;;;4998264;28;20061;-78
2023/01/31 14:50:56;;;;;;;13.90;3.58;;;;;;;;;;5024286;28;20049;-78
2023/01/31 14:53:23;;;;;;;12.13;3.40;;;;;;;;;;5032150;28;20057;-79
2023/01/31 14:56:19;;;;;;;12.68;3.95;;;;;;;;;;5016667;28;20056;-79